Time;durP1;ratioP1;P1;durP2;ratioP2;P2;SDS_P1;SDS_P2;PMS_P1;PMS_P2;Temp;Humidity;BMP_temperature;BMP_pressure;BME280_temperature;BME280_humidity;BME280_pressure;Samples;Min_cycle;Max_cycle;Signal;HPM_P1;HPM_P2
2024/01/20 00:01:22;;;;;;;13.40;9.50;;;3.20;99.30;;;;;;5084902;28;20194;-27
2024/01/20 00:03:54;;;;;;;14.93;10.23;;;3.20;99.30;;;;;;5101686;28;20571;-27
2024/01/20 00:06:20;;;;;;;17.77;10.55;;;3.20;99.30;;;;;;5085169;28;20206;-27
2024/01/20 00:08:48;;;;;;;14.57;9.65;;;3.20;99.30;;;;;;5101508;28;20187;-27
2024/01/20 00:11:19;;;;;;;13.20;9.82;;;3.20;99.30;;;;;;5102029;28;20688;-26
2024/01/20 00:13:45;;;;;;;14.80;10.00;;;3.20;99.30;;;;;;5084398;28;20189;-26
2024/01/20 00:16:12;;;;;;;18.50;10.00;;;3.20;99.30;;;;;;5085655;28;20191;-26
2024/01/20 00:18:40;;;;;;;13.93;9.02;;;3.20;99.30;;;;;;5099936;28;20813;-27
2024/01/20 00:21:06;;;;;;;10.82;9.23;;;3.10;99.20;;;;;;5101390;28;20207;-27
2024/01/20 00:23:37;;;;;;;13.77;9.68;;;3.20;99.20;;;;;;5084235;28;20305;-26
2024/01/20 00:26:05;;;;;;;14.98;10.10;;;3.20;99.20;;;;;;5089973;28;20862;-27
2024/01/20 00:28:31;;;;;;;15.87;9.03;;;3.10;99.20;;;;;;5100859;28;20248;-26
2024/01/20 00:30:59;;;;;;;14.30;9.23;;;3.10;99.20;;;;;;5083778;28;20432;-27
2024/01/20 00:33:25;;;;;;;13.68;8.95;;;3.10;99.20;;;;;;5085497;28;20210;-27
2024/01/20 00:35:52;;;;;;;12.98;9.45;;;3.10;99.20;;;;;;5088211;28;20190;-27
2024/01/20 00:38:20;;;;;;;13.75;9.50;;;3.10;99.10;;;;;;5086708;28;20266;-27
2024/01/20 00:40:47;;;;;;;10.85;8.05;;;3.10;99.10;;;;;;5101628;28;20267;-27
2024/01/20 00:43:15;;;;;;;14.85;9.50;;;3.10;99.20;;;;;;5100632;28;20210;-28
2024/01/20 00:45:46;;;;;;;10.93;8.50;;;3.10;99.10;;;;;;5099076;28;20187;-27
2024/01/20 00:48:14;;;;;;;13.52;8.82;;;3.10;99.00;;;;;;5083273;28;20182;-26
2024/01/20 00:50:43;;;;;;;12.75;9.10;;;3.10;99.00;;;;;;5100586;28;20194;-26
2024/01/20 00:53:13;;;;;;;13.05;8.23;;;3.10;99.40;;;;;;5083185;28;20534;-27
2024/01/20 00:55:39;;;;;;;13.90;8.73;;;3.10;99.10;;;;;;5079565;28;20190;-27
2024/01/20 00:58:05;;;;;;;11.30;9.10;;;3.10;99.00;;;;;;5098552;28;21035;-28
2024/01/20 01:00:33;;;;;;;15.10;9.73;;;3.10;99.10;;;;;;5063364;28;20206;-27
2024/01/20 01:03:04;;;;;;;11.73;8.68;;;3.10;99.10;;;;;;5098474;28;20459;-27
2024/01/20 01:05:32;;;;;;;10.25;8.55;;;3.10;99.10;;;;;;5097420;28;20622;-27
2024/01/20 01:07:58;;;;;;;14.83;9.30;;;3.10;99.10;;;;;;5098405;28;20197;-27
2024/01/20 01:10:29;;;;;;;15.50;9.50;;;3.10;99.10;;;;;;5079408;28;20528;-27
2024/01/20 01:12:56;;;;;;;13.52;8.50;;;3.10;99.10;;;;;;5095033;28;20217;-27
2024/01/20 01:15:24;;;;;;;11.77;8.50;;;3.10;99.10;;;;;;5078325;28;20919;-27
2024/01/20 01:17:55;;;;;;;13.10;8.43;;;3.10;99.00;;;;;;5098770;28;20754;-27
2024/01/20 01:20:21;;;;;;;11.55;8.60;;;3.10;99.40;;;;;;5098185;28;20274;-27
2024/01/20 01:22:51;;;;;;;12.10;7.20;;;3.10;99.10;;;;;;5063406;28;20244;-28
2024/01/20 01:25:22;;;;;;;10.25;8.27;;;3.10;99.10;;;;;;5098852;28;21072;-28
2024/01/20 01:27:48;;;;;;;10.15;8.25;;;3.10;99.00;;;;;;5064420;28;20237;-27
2024/01/20 01:30:19;;;;;;;12.88;8.80;;;3.10;99.00;;;;;;5098400;28;20231;-27
2024/01/20 01:32:47;;;;;;;14.25;8.52;;;3.00;99.00;;;;;;5083196;28;20712;-27
2024/01/20 01:35:14;;;;;;;10.30;7.22;;;3.00;99.00;;;;;;5098623;28;20197;-27
2024/01/20 01:37:40;;;;;;;14.45;8.45;;;3.00;99.00;;;;;;5082553;28;20720;-27
2024/01/20 01:40:08;;;;;;;12.80;8.17;;;3.00;99.00;;;;;;5082152;28;20206;-27
2024/01/20 01:42:36;;;;;;;13.93;8.35;;;3.00;99.00;;;;;;5099540;28;20419;-27
2024/01/20 01:45:05;;;;;;;11.93;9.45;;;3.00;99.00;;;;;;5081737;28;20198;-27
2024/01/20 01:47:31;;;;;;;11.85;7.53;;;3.00;99.00;;;;;;5099087;28;20410;-28
2024/01/20 01:49:58;;;;;;;11.40;9.02;;;3.00;99.00;;;;;;5080373;28;20244;-27
2024/01/20 01:52:26;;;;;;;14.30;7.63;;;3.00;98.90;;;;;;5098869;28;21024;-27
2024/01/20 01:54:53;;;;;;;15.75;9.55;;;3.00;98.90;;;;;;5081869;28;20281;-27
2024/01/20 01:57:21;;;;;;;12.70;8.32;;;3.00;98.90;;;;;;5098671;28;20190;-27
2024/01/20 01:59:50;;;;;;;11.52;8.23;;;3.00;98.90;;;;;;5083364;28;20214;-27
2024/01/20 02:02:19;;;;;;;11.15;7.90;;;3.00;98.90;;;;;;5098696;28;20225;-27
2024/01/20 02:04:47;;;;;;;11.77;8.45;;;3.00;98.90;;;;;;5063585;28;20240;-27
2024/01/20 02:07:16;;;;;;;10.35;8.25;;;3.00;98.90;;;;;;5098696;28;20206;-27
2024/01/20 02:09:44;;;;;;;16.25;9.25;;;3.00;98.80;;;;;;5061874;28;20217;-26
2024/01/20 02:12:11;;;;;;;14.35;8.88;;;3.00;98.80;;;;;;5080819;28;20204;-27
2024/01/20 02:14:38;;;;;;;12.32;9.10;;;3.00;98.80;;;;;;5080720;28;20210;-27
2024/01/20 02:17:06;;;;;;;13.90;8.73;;;3.00;98.80;;;;;;5098808;28;20696;-27
2024/01/20 02:19:37;;;;;;;15.80;9.43;;;3.00;99.10;;;;;;5062054;28;20278;-27
2024/01/20 02:22:10;;;;;;;13.93;8.73;;;3.00;98.70;;;;;;5098778;28;20198;-26
2024/01/20 02:24:48;;;;;;;14.50;8.52;;;3.00;98.70;;;;;;5080549;28;20218;-27
2024/01/20 02:27:17;;;;;;;14.93;9.07;;;3.00;98.70;;;;;;5067036;28;20193;-27
2024/01/20 02:29:43;;;;;;;15.25;8.75;;;3.00;98.70;;;;;;5065253;28;20284;-27
2024/01/20 02:32:09;;;;;;;16.10;10.38;;;3.00;98.60;;;;;;5097947;28;20194;-27
2024/01/20 02:34:37;;;;;;;12.38;8.38;;;3.00;98.60;;;;;;5098006;28;20193;-26
2024/01/20 02:37:08;;;;;;;16.38;9.88;;;3.00;98.60;;;;;;5097625;28;20190;-27
2024/01/20 02:39:34;;;;;;;14.05;9.48;;;3.00;98.60;;;;;;5079269;28;20226;-27
2024/01/20 02:42:00;;;;;;;15.68;9.93;;;2.90;98.60;;;;;;5099834;28;20922;-27
2024/01/20 02:44:27;;;;;;;16.53;10.20;;;2.90;98.60;;;;;;5067004;28;20221;-27
2024/01/20 02:46:53;;;;;;;15.48;10.25;;;2.90;98.60;;;;;;5084173;28;20444;-27
2024/01/20 02:49:21;;;;;;;16.00;11.23;;;2.90;98.50;;;;;;5052244;28;20222;-27
2024/01/20 02:51:50;;;;;;;15.52;9.63;;;3.00;98.50;;;;;;5100963;28;20847;-27
2024/01/20 02:54:16;;;;;;;18.23;10.00;;;2.90;98.40;;;;;;5101600;28;20212;-27
2024/01/20 02:56:44;;;;;;;14.60;8.93;;;2.90;98.50;;;;;;5101020;28;20209;-27
2024/01/20 02:59:12;;;;;;;18.57;9.40;;;2.90;98.50;;;;;;5100760;28;20229;-26
2024/01/20 03:01:39;;;;;;;15.35;10.18;;;2.90;98.50;;;;;;5101243;28;20448;-27
2024/01/20 03:04:05;;;;;;;13.65;9.70;;;2.90;98.50;;;;;;5101201;28;20218;-26
2024/01/20 03:06:33;;;;;;;16.60;9.90;;;2.90;98.50;;;;;;5064615;28;20672;-26
2024/01/20 03:09:06;;;;;;;18.02;10.10;;;2.90;98.50;;;;;;5082563;28;20258;-27
2024/01/20 03:11:32;;;;;;;16.95;10.05;;;2.90;98.50;;;;;;5081793;28;20187;-27
2024/01/20 03:13:58;;;;;;;18.75;10.10;;;2.90;98.50;;;;;;5100533;28;20202;-27
2024/01/20 03:16:24;;;;;;;15.77;10.05;;;2.90;98.50;;;;;;5084092;28;20186;-27
2024/01/20 03:18:52;;;;;;;16.43;10.17;;;2.90;98.50;;;;;;5071598;28;20602;-27
2024/01/20 03:21:19;;;;;;;15.32;10.43;;;2.90;98.50;;;;;;5101019;28;20645;-27
2024/01/20 03:23:44;;;;;;;17.57;10.50;;;2.90;98.50;;;;;;5086755;28;20271;-27
2024/01/20 03:26:11;;;;;;;14.98;9.77;;;2.90;98.50;;;;;;5100508;28;20424;-27
2024/01/20 03:28:38;;;;;;;17.55;10.73;;;2.90;98.50;;;;;;5068059;28;20242;-27
2024/01/20 03:31:07;;;;;;;13.20;9.60;;;2.90;98.60;;;;;;5100651;28;20203;-26
2024/01/20 03:33:32;;;;;;;14.80;10.27;;;2.90;98.60;;;;;;5040847;28;1100185;-27
2024/01/20 03:36:01;;;;;;;16.67;9.83;;;2.90;98.60;;;;;;5084809;28;20194;-27
2024/01/20 03:38:29;;;;;;;13.70;10.07;;;2.90;98.50;;;;;;5069392;28;20527;-27
2024/01/20 03:40:58;;;;;;;16.42;10.07;;;2.90;98.50;;;;;;5082483;28;20598;-26
2024/01/20 03:43:26;;;;;;;19.52;10.25;;;2.90;98.50;;;;;;5100346;28;20207;-27
2024/01/20 03:45:55;;;;;;;18.25;9.38;;;2.90;98.50;;;;;;5066815;28;20771;-27
2024/01/20 03:48:21;;;;;;;18.15;10.20;;;2.90;98.50;;;;;;5100010;28;20235;-27
2024/01/20 03:50:47;;;;;;;16.65;10.32;;;2.90;98.50;;;;;;5100441;28;20222;-27
2024/01/20 03:53:16;;;;;;;14.43;8.68;;;2.90;98.50;;;;;;5081084;28;20189;-26
2024/01/20 03:55:43;;;;;;;15.82;10.38;;;2.90;98.50;;;;;;5099028;28;20198;-27
2024/01/20 03:58:13;;;;;;;15.68;8.65;;;2.90;98.60;;;;;;5064142;28;20190;-27
2024/01/20 04:00:39;;;;;;;17.27;10.52;;;2.90;99.00;;;;;;5100651;28;20271;-27
2024/01/20 04:03:08;;;;;;;14.80;9.93;;;2.90;98.70;;;;;;5100964;28;20213;-26
2024/01/20 04:05:34;;;;;;;13.75;9.00;;;2.90;98.70;;;;;;5100639;28;20191;-27
2024/01/20 04:08:02;;;;;;;17.17;10.67;;;2.90;98.70;;;;;;5099532;28;20186;-26
2024/01/20 04:10:31;;;;;;;15.75;9.07;;;2.90;98.70;;;;;;5100590;28;20671;-27
2024/01/20 04:12:56;;;;;;;17.10;10.13;;;2.90;98.70;;;;;;5100442;28;20179;-26
2024/01/20 04:15:23;;;;;;;15.53;9.97;;;2.90;98.60;;;;;;5084337;28;20190;-27
2024/01/20 04:17:49;;;;;;;14.60;9.50;;;2.90;98.60;;;;;;5066610;28;20727;-27
2024/01/20 04:20:15;;;;;;;14.27;9.23;;;2.90;98.50;;;;;;5100595;28;20195;-27
2024/01/20 04:22:43;;;;;;;18.73;9.65;;;2.90;98.60;;;;;;5083432;28;20435;-27
2024/01/20 04:25:12;;;;;;;13.80;9.23;;;2.90;98.60;;;;;;5084217;28;20463;-26
2024/01/20 04:27:40;;;;;;;14.52;9.27;;;2.90;98.60;;;;;;5083113;28;20258;-27
2024/01/20 04:30:11;;;;;;;14.45;9.35;;;2.90;98.50;;;;;;5100647;28;20641;-27
2024/01/20 04:32:40;;;;;;;19.55;10.05;;;2.90;98.50;;;;;;5068595;28;20198;-27
2024/01/20 04:35:07;;;;;;;14.85;9.55;;;2.90;98.50;;;;;;5069904;28;20186;-27
2024/01/20 04:37:34;;;;;;;15.65;9.30;;;2.90;98.50;;;;;;5085512;28;20193;-27
2024/01/20 04:40:03;;;;;;;14.68;9.60;;;2.90;98.50;;;;;;5102251;28;20241;-28
2024/01/20 04:42:31;;;;;;;14.88;8.68;;;2.90;98.50;;;;;;5074404;28;20186;-26
2024/01/20 04:44:57;;;;;;;14.48;9.20;;;2.90;98.50;;;;;;5083581;28;20210;-26
2024/01/20 04:47:24;;;;;;;14.25;9.23;;;2.90;98.40;;;;;;5085919;28;20247;-26
2024/01/20 04:49:53;;;;;;;15.23;9.45;;;2.90;98.40;;;;;;5088176;28;20230;-27
2024/01/20 04:52:22;;;;;;;14.07;9.27;;;2.90;98.30;;;;;;5082742;28;20186;-27
2024/01/20 04:54:53;;;;;;;14.70;8.55;;;2.90;98.40;;;;;;5066835;28;20273;-27
2024/01/20 04:57:22;;;;;;;14.23;8.80;;;2.90;98.30;;;;;;5087674;28;20218;-27
2024/01/20 04:59:48;;;;;;;12.05;9.15;;;2.80;98.30;;;;;;5087924;28;20890;-27
2024/01/20 05:02:14;;;;;;;15.10;9.13;;;2.90;98.40;;;;;;5100502;28;20277;-28
2024/01/20 05:04:40;;;;;;;14.13;9.70;;;2.80;98.30;;;;;;5099793;28;20510;-27
2024/01/20 05:07:08;;;;;;;16.53;10.40;;;2.90;98.40;;;;;;5086553;28;20645;-27
2024/01/20 05:09:35;;;;;;;11.40;7.68;;;2.80;98.30;;;;;;5083638;28;20448;-27
2024/01/20 05:12:01;;;;;;;12.90;8.85;;;2.90;98.40;;;;;;5099665;28;20184;-27
2024/01/20 05:14:27;;;;;;;14.70;9.77;;;2.80;98.30;;;;;;5099065;28;20198;-28
2024/01/20 05:16:53;;;;;;;13.85;9.65;;;2.90;98.20;;;;;;5081861;28;20501;-28
2024/01/20 05:19:20;;;;;;;13.73;8.88;;;2.90;98.30;;;;;;5099745;28;20206;-27
2024/01/20 05:21:46;;;;;;;11.60;9.00;;;2.80;98.30;;;;;;5085665;28;20194;-27
2024/01/20 05:24:13;;;;;;;12.98;10.30;;;2.90;98.20;;;;;;5084145;28;20696;-27
2024/01/20 05:26:41;;;;;;;12.32;8.93;;;2.80;98.20;;;;;;5098267;28;20186;-27
2024/01/20 05:29:08;;;;;;;14.47;9.93;;;2.80;98.20;;;;;;5084108;28;20632;-27
2024/01/20 05:31:36;;;;;;;12.93;9.40;;;2.80;98.20;;;;;;5100440;28;21091;-27
2024/01/20 05:34:10;;;;;;;13.95;9.68;;;2.90;98.30;;;;;;5100296;28;20209;-30
2024/01/20 05:36:39;;;;;;;12.60;9.40;;;2.80;98.20;;;;;;5085848;28;20186;-27
2024/01/20 05:39:05;;;;;;;13.95;10.00;;;2.80;98.20;;;;;;5100549;28;20209;-26
2024/01/20 05:41:33;;;;;;;14.80;9.70;;;2.80;98.20;;;;;;5100623;28;20182;-27
2024/01/20 05:44:02;;;;;;;13.07;9.43;;;2.80;98.20;;;;;;5100940;28;20851;-26
2024/01/20 05:46:30;;;;;;;12.57;9.85;;;2.80;98.10;;;;;;5089255;28;20182;-27
2024/01/20 05:48:58;;;;;;;14.15;10.35;;;2.80;98.00;;;;;;5086701;28;20178;-27
2024/01/20 05:51:29;;;;;;;15.02;10.80;;;2.80;98.00;;;;;;5086036;28;20796;-27
2024/01/20 05:53:57;;;;;;;15.43;10.18;;;2.80;98.00;;;;;;5082572;28;20190;-27
2024/01/20 05:56:26;;;;;;;12.90;9.68;;;2.80;98.00;;;;;;5095546;28;20716;-27
2024/01/20 05:58:53;;;;;;;14.70;10.00;;;2.80;98.10;;;;;;5086202;28;20198;-27
2024/01/20 06:01:19;;;;;;;14.63;10.45;;;2.80;98.10;;;;;;5084075;28;20795;-27
2024/01/20 06:03:49;;;;;;;13.10;8.65;;;2.80;98.10;;;;;;5088439;28;20242;-27
2024/01/20 06:06:14;;;;;;;12.15;10.35;;;2.80;98.10;;;;;;5102469;28;20197;-27
2024/01/20 06:08:43;;;;;;;14.57;9.30;;;2.80;98.00;;;;;;5101359;28;20653;-27
2024/01/20 06:11:11;;;;;;;15.90;10.82;;;2.80;98.00;;;;;;5093898;28;20509;-27
2024/01/20 06:13:37;;;;;;;13.88;10.32;;;2.80;98.00;;;;;;5101465;28;20201;-27
2024/01/20 06:16:06;;;;;;;16.67;10.00;;;2.80;98.00;;;;;;5072040;28;20194;-27
2024/01/20 06:18:33;;;;;;;15.13;9.93;;;2.80;97.90;;;;;;5092679;28;20456;-26
2024/01/20 06:20:59;;;;;;;15.57;10.00;;;2.80;97.90;;;;;;5085992;28;20289;-27
2024/01/20 06:23:26;;;;;;;12.60;9.85;;;2.80;97.90;;;;;;5104050;28;20306;-26
2024/01/20 06:25:56;;;;;;;14.32;9.70;;;2.80;97.90;;;;;;5102888;28;20207;-27
2024/01/20 06:28:23;;;;;;;14.52;9.98;;;2.80;97.90;;;;;;5103299;28;20881;-27
2024/01/20 06:30:52;;;;;;;14.77;10.02;;;2.80;97.90;;;;;;5102578;28;20285;-27
2024/01/20 06:33:18;;;;;;;12.50;9.35;;;2.80;98.00;;;;;;5102459;28;20311;-27
2024/01/20 06:35:44;;;;;;;15.27;9.95;;;2.80;98.00;;;;;;5085390;28;20209;-27
2024/01/20 06:38:10;;;;;;;13.82;10.55;;;2.80;97.90;;;;;;5086649;28;20190;-27
2024/01/20 06:40:36;;;;;;;12.97;9.90;;;2.80;98.00;;;;;;5102872;28;20209;-27
2024/01/20 06:43:03;;;;;;;13.98;10.15;;;2.80;98.00;;;;;;5088386;28;20428;-27
2024/01/20 06:45:33;;;;;;;14.40;10.30;;;2.80;97.90;;;;;;5088254;28;20319;-27
2024/01/20 06:48:04;;;;;;;14.63;9.02;;;2.80;97.80;;;;;;5099103;28;20263;-27
2024/01/20 06:50:36;;;;;;;16.45;10.13;;;2.80;97.80;;;;;;5070541;28;20213;-27
2024/01/20 06:53:02;;;;;;;12.98;10.15;;;2.80;97.90;;;;;;5102634;28;20537;-26
2024/01/20 06:55:36;;;;;;;15.73;10.02;;;2.80;97.80;;;;;;5102899;28;20555;-27
2024/01/20 06:58:03;;;;;;;16.30;11.02;;;2.80;97.90;;;;;;5083303;28;20632;-28
2024/01/20 07:00:32;;;;;;;15.70;10.50;;;2.80;97.80;;;;;;5102322;28;20244;-28
2024/01/20 07:03:03;;;;;;;12.77;9.40;;;2.80;97.80;;;;;;5069859;28;20232;-27
2024/01/20 07:05:32;;;;;;;12.93;8.88;;;2.80;97.80;;;;;;5101934;28;20193;-27
2024/01/20 07:08:00;;;;;;;15.57;9.98;;;2.70;97.80;;;;;;5101594;28;20246;-27
2024/01/20 07:10:26;;;;;;;13.20;9.77;;;2.80;97.80;;;;;;5087907;28;21005;-27
2024/01/20 07:12:52;;;;;;;13.80;9.67;;;2.80;97.70;;;;;;5084729;28;20966;-27
2024/01/20 07:15:18;;;;;;;12.63;9.00;;;2.70;97.70;;;;;;5088350;28;20465;-27
2024/01/20 07:17:44;;;;;;;12.93;9.68;;;2.70;97.70;;;;;;5088001;28;20206;-27
2024/01/20 07:20:12;;;;;;;15.00;10.07;;;2.80;97.80;;;;;;5083005;28;20202;-27
2024/01/20 07:22:41;;;;;;;15.45;10.00;;;2.70;97.70;;;;;;5084007;28;20270;-27
2024/01/20 07:25:10;;;;;;;15.63;9.77;;;2.70;97.60;;;;;;5065682;28;20267;-26
2024/01/20 07:27:38;;;;;;;14.30;9.48;;;2.70;97.60;;;;;;5088194;28;20255;-27
2024/01/20 07:30:05;;;;;;;15.13;10.73;;;2.80;97.60;;;;;;5101193;28;20202;-27
2024/01/20 07:32:33;;;;;;;13.93;9.95;;;2.70;97.50;;;;;;5099760;28;20222;-27
2024/01/20 07:35:03;;;;;;;14.70;10.53;;;2.70;97.50;;;;;;5065912;28;20868;-27
2024/01/20 07:37:29;;;;;;;13.35;10.02;;;2.70;97.50;;;;;;5086765;28;21476;-27
2024/01/20 07:39:55;;;;;;;13.83;9.47;;;2.70;97.50;;;;;;5093122;28;20245;-26
2024/01/20 07:42:23;;;;;;;12.82;9.52;;;2.70;97.50;;;;;;5100800;28;20487;-26
2024/01/20 07:44:51;;;;;;;14.63;10.52;;;2.70;97.50;;;;;;5100446;28;20778;-27
2024/01/20 07:47:17;;;;;;;9.17;8.23;;;2.70;97.50;;;;;;5102038;28;20289;-27
2024/01/20 07:49:43;;;;;;;12.93;9.63;;;2.70;97.40;;;;;;5103130;28;20988;-27
2024/01/20 07:52:14;;;;;;;13.82;9.57;;;2.70;97.40;;;;;;5101707;28;20408;-30
2024/01/20 07:54:46;;;;;;;12.32;9.30;;;2.70;97.40;;;;;;5067502;28;20211;-27
2024/01/20 07:57:12;;;;;;;12.00;9.48;;;2.70;97.40;;;;;;5067413;28;20182;-27
2024/01/20 07:59:40;;;;;;;15.47;10.13;;;2.70;97.40;;;;;;5101017;28;20201;-28
2024/01/20 08:02:08;;;;;;;15.07;9.40;;;2.70;97.30;;;;;;5086162;28;20231;-27
2024/01/20 08:04:34;;;;;;;13.63;10.02;;;2.70;97.30;;;;;;5101950;28;20288;-27
2024/01/20 08:07:00;;;;;;;16.07;10.77;;;2.70;97.20;;;;;;5083200;28;20190;-27
2024/01/20 08:09:28;;;;;;;13.30;9.50;;;2.70;97.20;;;;;;5081666;28;21201;-28
2024/01/20 08:11:58;;;;;;;13.63;9.45;;;2.70;97.30;;;;;;5096409;28;21144;-26
2024/01/20 08:14:26;;;;;;;17.52;10.45;;;2.70;97.20;;;;;;5083588;28;20185;-27
2024/01/20 08:16:52;;;;;;;17.60;9.90;;;2.70;97.20;;;;;;5065209;28;20673;-27
2024/01/20 08:19:20;;;;;;;15.63;9.25;;;2.70;97.20;;;;;;5082570;28;20210;-26
2024/01/20 08:21:48;;;;;;;16.88;9.30;;;2.70;97.20;;;;;;5085084;28;20233;-27
2024/01/20 08:24:14;;;;;;;17.33;9.68;;;2.60;97.20;;;;;;5077216;28;20203;-27
2024/01/20 08:26:45;;;;;;;15.88;9.40;;;2.60;97.20;;;;;;5098241;28;20179;-27
2024/01/20 08:29:12;;;;;;;17.08;10.05;;;2.60;97.10;;;;;;5062280;28;20870;-26
2024/01/20 08:31:43;;;;;;;13.27;10.43;;;2.60;97.10;;;;;;5098252;28;20184;-27
2024/01/20 08:34:09;;;;;;;15.68;9.60;;;2.60;97.10;;;;;;5084157;28;20212;-28
2024/01/20 08:36:35;;;;;;;13.70;10.37;;;2.60;97.10;;;;;;5083738;28;20936;-27
2024/01/20 08:39:03;;;;;;;14.30;9.87;;;2.60;97.10;;;;;;5085458;28;20447;-26
2024/01/20 08:41:29;;;;;;;13.00;9.70;;;2.60;97.10;;;;;;5097261;28;21925;-27
2024/01/20 08:44:00;;;;;;;12.68;9.07;;;2.60;97.10;;;;;;5082721;28;20279;-27
2024/01/20 08:46:31;;;;;;;14.65;9.52;;;2.60;97.10;;;;;;5097625;28;20508;-27
2024/01/20 08:48:57;;;;;;;15.05;10.02;;;2.60;97.00;;;;;;5097629;28;20210;-28
2024/01/20 08:51:23;;;;;;;14.15;9.82;;;2.60;96.90;;;;;;5079639;28;20214;-27
2024/01/20 08:53:51;;;;;;;16.10;10.05;;;2.60;96.90;;;;;;5067333;28;20215;-26
2024/01/20 08:56:17;;;;;;;16.02;10.35;;;2.60;96.90;;;;;;5097401;28;20381;-26
2024/01/20 08:58:46;;;;;;;15.37;10.07;;;2.60;96.90;;;;;;5079638;28;20178;-27
2024/01/20 09:01:12;;;;;;;15.55;10.05;;;2.60;96.90;;;;;;5097418;28;20932;-27
2024/01/20 09:03:45;;;;;;;14.13;9.50;;;2.60;96.90;;;;;;5097936;28;20697;-27
2024/01/20 09:06:15;;;;;;;17.55;10.38;;;2.60;96.80;;;;;;5048517;28;20573;-26
2024/01/20 09:08:44;;;;;;;18.15;10.75;;;2.60;96.80;;;;;;5097825;28;20186;-27
2024/01/20 09:11:10;;;;;;;15.88;9.60;;;2.60;96.90;;;;;;5049304;28;20206;-27
2024/01/20 09:13:36;;;;;;;17.35;11.05;;;2.60;96.90;;;;;;5096341;28;20213;-29
2024/01/20 09:16:02;;;;;;;15.25;10.43;;;2.60;97.00;;;;;;5079489;28;20179;-27
2024/01/20 09:18:31;;;;;;;14.18;9.77;;;2.60;97.00;;;;;;5098629;28;20235;-26
2024/01/20 09:20:59;;;;;;;14.88;10.73;;;2.60;97.00;;;;;;5096942;28;20202;-27
2024/01/20 09:23:27;;;;;;;13.63;9.52;;;2.60;97.00;;;;;;5096815;28;20981;-27
2024/01/20 09:25:53;;;;;;;15.05;10.07;;;2.60;96.90;;;;;;5079181;28;20194;-27
2024/01/20 09:28:21;;;;;;;14.77;10.57;;;2.60;96.90;;;;;;5097160;28;20186;-27
2024/01/20 09:30:52;;;;;;;12.38;8.95;;;2.60;96.80;;;;;;5097505;28;20798;-27
2024/01/20 09:33:18;;;;;;;17.77;9.57;;;2.60;96.70;;;;;;5058706;22;20838;-73
2024/01/20 09:35:47;;;;;;;14.07;10.27;;;2.60;96.70;;;;;;5058997;28;20176;-71
2024/01/20 09:38:16;;;;;;;12.20;9.65;;;2.60;96.80;;;;;;5036338;28;20607;-74
2024/01/20 09:40:42;;;;;;;12.93;9.27;;;2.60;96.80;;;;;;5057404;28;20245;-75
2024/01/20 09:43:08;;;;;;;14.07;8.50;;;2.60;96.80;;;;;;5056854;28;20222;-73
2024/01/20 09:45:38;;;;;;;13.55;9.57;;;2.60;96.80;;;;;;5057097;28;20541;-71
2024/01/20 09:48:07;;;;;;;14.00;9.20;;;2.60;96.80;;;;;;5039899;28;20587;-72
2024/01/20 09:50:35;;;;;;;13.23;8.73;;;2.60;96.80;;;;;;5057691;28;20646;-71
2024/01/20 09:53:14;;;;;;;12.48;9.80;;;2.60;96.80;;;;;;5057350;28;20203;-72
2024/01/20 09:55:46;;;;;;;12.50;9.85;;;2.60;96.80;;;;;;5058088;28;20249;-74
2024/01/20 09:58:14;;;;;;;15.77;9.50;;;2.60;96.70;;;;;;5039429;28;20212;-74
2024/01/20 10:00:41;;;;;;;14.52;10.77;;;2.60;96.60;;;;;;5061596;28;20944;-74
2024/01/20 10:03:08;;;;;;;14.70;9.75;;;2.60;96.50;;;;;;5037779;28;20704;-74
2024/01/20 10:05:35;;;;;;;15.75;8.75;;;2.60;96.60;;;;;;5055265;28;20602;-75
2024/01/20 10:08:02;;;;;;;15.65;9.80;;;2.60;96.70;;;;;;5038705;28;20196;-74
2024/01/20 10:10:31;;;;;;;15.80;9.73;;;2.60;96.80;;;;;;5057932;28;20179;-74
2024/01/20 10:12:57;;;;;;;11.75;9.00;;;2.60;96.70;;;;;;5041470;28;20184;-75
2024/01/20 10:15:26;;;;;;;13.38;9.48;;;2.60;96.70;;;;;;5052597;28;20187;-77
2024/01/20 10:17:52;;;;;;;16.20;8.88;;;2.60;96.70;;;;;;5063947;28;20987;-77
2024/01/20 10:20:22;;;;;;;12.65;8.95;;;2.60;96.70;;;;;;5061486;28;20194;-75
2024/01/20 10:22:49;;;;;;;12.07;8.45;;;2.60;96.70;;;;;;5036472;28;20713;-75
2024/01/20 10:25:19;;;;;;;13.27;8.95;;;2.60;96.70;;;;;;5059892;28;20223;-74
2024/01/20 10:27:47;;;;;;;10.95;8.43;;;2.60;96.80;;;;;;5059748;28;20741;-72
2024/01/20 10:30:22;;;;;;;14.18;9.82;;;2.60;96.80;;;;;;5047523;28;20257;-73
2024/01/20 10:32:53;;;;;;;13.10;9.05;;;2.60;96.80;;;;;;5034808;28;20693;-73
2024/01/20 10:35:19;;;;;;;10.77;8.48;;;2.60;96.80;;;;;;5011571;28;20220;-72
2024/01/20 10:37:53;;;;;;;15.98;8.35;;;2.60;96.80;;;;;;5057180;28;20199;-75
2024/01/20 10:40:19;;;;;;;12.20;8.43;;;2.60;96.90;;;;;;5039462;28;20203;-75
2024/01/20 10:42:52;;;;;;;14.07;8.73;;;2.60;96.90;;;;;;5021283;28;20231;-74
2024/01/20 10:45:18;;;;;;;14.38;9.38;;;2.60;96.90;;;;;;5058351;28;20958;-72
2024/01/20 10:48:02;;;;;;;15.68;9.65;;;2.60;96.90;;;;;;5043863;28;20171;-77
2024/01/20 10:50:32;;;;;;;11.07;8.15;;;2.60;96.80;;;;;;5026738;28;20185;-75
2024/01/20 10:53:02;;;;;;;11.23;8.15;;;2.60;96.70;;;;;;5035628;28;20805;-73
2024/01/20 10:55:29;;;;;;;14.25;9.18;;;2.70;96.60;;;;;;5038778;28;20218;-72
2024/01/20 10:58:02;;;;;;;15.57;10.25;;;2.70;96.50;;;;;;5023564;28;20192;-75
2024/01/20 11:00:33;;;;;;;13.77;8.93;;;2.70;96.50;;;;;;5006196;28;20187;-74
2024/01/20 11:02:59;;;;;;;14.13;9.63;;;2.70;96.50;;;;;;5025927;28;20889;-73
2024/01/20 11:05:26;;;;;;;11.82;8.55;;;2.70;96.90;;;;;;5049277;28;20208;-71
2024/01/20 11:08:06;;;;;;;15.07;9.13;;;2.70;96.60;;;;;;5043442;28;20916;-70
2024/01/20 11:10:45;;;;;;;12.82;9.02;;;2.70;96.60;;;;;;5038004;28;20184;-71
2024/01/20 11:13:15;;;;;;;13.80;9.60;;;2.70;96.60;;;;;;5058116;28;20241;-71
2024/01/20 11:15:49;;;;;;;15.38;9.95;;;2.70;96.60;;;;;;5041793;28;20806;-71
2024/01/20 11:18:19;;;;;;;20.00;13.10;;;2.70;96.40;;;;;;5025667;28;20188;-70
2024/01/20 11:20:57;;;;;;;15.75;13.82;;;2.70;96.30;;;;;;5043098;28;20260;-72
2024/01/20 11:23:26;;;;;;;18.38;13.82;;;2.70;96.30;;;;;;5041686;28;20310;-74
2024/01/20 11:25:56;;;;;;;19.80;14.63;;;2.70;96.30;;;;;;5041695;28;20755;-72
2024/01/20 11:28:43;;;;;;;20.20;13.50;;;2.70;96.20;;;;;;5056125;28;20179;-72
2024/01/20 11:31:25;;;;;;;19.88;13.65;;;2.70;96.10;;;;;;5036462;28;20207;-72
2024/01/20 11:33:52;;;;;;;20.13;13.00;;;2.70;96.10;;;;;;5020758;28;20219;-74
2024/01/20 11:36:23;;;;;;;20.52;11.68;;;2.70;95.80;;;;;;5054134;28;20667;-71
2024/01/20 11:38:51;;;;;;;18.02;11.82;;;2.70;95.60;;;;;;5022518;28;20208;-72
2024/01/20 11:41:20;;;;;;;31.30;14.73;;;2.70;95.50;;;;;;5033759;28;20196;-70
2024/01/20 11:43:50;;;;;;;37.47;21.92;;;2.70;95.60;;;;;;5042034;28;20220;-72
2024/01/20 11:46:17;;;;;;;37.95;21.40;;;2.70;95.50;;;;;;5040677;28;20233;-72
2024/01/20 11:48:44;;;;;;;35.35;19.23;;;2.70;95.50;;;;;;5055483;28;20846;-70
2024/01/20 11:51:10;;;;;;;39.25;22.75;;;2.70;95.30;;;;;;5037084;28;20854;-69
2024/01/20 11:53:41;;;;;;;33.97;19.20;;;2.70;95.20;;;;;;5040468;28;20240;-69
2024/01/20 11:56:11;;;;;;;42.25;35.15;;;2.70;95.30;;;;;;5054102;28;20196;-71
2024/01/20 11:58:39;;;;;;;86.78;72.70;;;2.70;95.20;;;;;;5020136;28;20200;-71
2024/01/20 12:01:10;;;;;;;89.18;80.93;;;2.70;95.40;;;;;;5054207;28;20179;-71
2024/01/20 12:03:36;;;;;;;172.52;159.25;;;2.70;95.50;;;;;;5022375;28;20243;-71
2024/01/20 12:06:07;;;;;;;788.80;730.47;;;2.80;95.70;;;;;;5050827;28;20203;-71
2024/01/20 12:08:42;;;;;;;896.00;823.65;;;2.80;95.90;;;;;;5039610;28;20188;-70
2024/01/20 12:11:15;;;;;;;888.13;813.80;;;2.80;96.10;;;;;;5024931;28;20232;-70
2024/01/20 12:13:48;;;;;;;822.60;756.47;;;2.80;96.30;;;;;;5055759;28;20291;-72
2024/01/20 12:16:15;;;;;;;749.92;691.25;;;2.80;96.30;;;;;;5022789;28;20195;-71
2024/01/20 12:18:41;;;;;;;756.90;696.05;;;2.90;96.30;;;;;;5034146;28;20207;-71
2024/01/20 12:21:09;;;;;;;760.75;699.08;;;2.90;96.20;;;;;;5033340;28;20254;-69
2024/01/20 12:23:38;;;;;;;772.30;708.03;;;2.90;96.20;;;;;;5049050;28;20215;-70
2024/01/20 12:26:16;;;;;;;774.08;710.13;;;3.00;96.30;;;;;;5018026;28;20331;-70
2024/01/20 12:28:45;;;;;;;764.55;699.15;;;3.00;96.40;;;;;;5054428;28;20203;-71
2024/01/20 12:31:11;;;;;;;796.33;728.03;;;3.00;96.40;;;;;;5021503;28;20763;-69
2024/01/20 12:33:43;;;;;;;774.33;706.92;;;3.00;96.40;;;;;;5035372;28;20280;-69
2024/01/20 12:36:09;;;;;;;768.70;702.35;;;3.00;96.30;;;;;;5059015;28;20183;-70
2024/01/20 12:38:35;;;;;;;808.85;737.10;;;3.00;96.30;;;;;;5050527;28;20200;-69
2024/01/20 12:41:06;;;;;;;820.38;747.08;;;3.00;96.30;;;;;;5056934;28;20682;-71
2024/01/20 12:43:35;;;;;;;810.33;736.83;;;3.00;96.30;;;;;;5038452;28;21040;-69
2024/01/20 12:46:01;;;;;;;762.05;693.65;;;3.00;96.40;;;;;;5023023;28;20180;-70